createdAt,value
2019-05-22T00:01:51.386Z,5.54
2019-05-22T00:07:00.494Z,5.39
2019-05-22T00:12:09.746Z,4.61
2019-05-22T00:17:18.844Z,3.80
2019-05-22T00:22:28.053Z,5.83
2019-05-22T00:27:37.139Z,5.35
2019-05-22T00:32:46.328Z,5.13
2019-05-22T00:37:55.407Z,3.64
2019-05-22T00:43:10.617Z,3.46
2019-05-22T00:48:13.181Z,3.16
2019-05-22T00:53:22.401Z,4.26
2019-05-22T00:58:31.511Z,3.60
2019-05-22T01:03:40.635Z,4.17
2019-05-22T01:08:49.716Z,3.40
2019-05-22T01:13:58.863Z,4.22
2019-05-22T01:19:08.153Z,4.10
2019-05-22T01:24:17.300Z,4.73
2019-05-22T01:29:26.422Z,3.83
2019-05-22T01:34:35.728Z,3.92
2019-05-22T01:39:44.883Z,3.27
2019-05-22T01:45:04.377Z,3.05
2019-05-22T01:50:02.862Z,3.41
2019-05-22T01:55:12.824Z,4.14
2019-05-22T02:00:21.984Z,3.08
2019-05-22T02:05:31.195Z,3.22
2019-05-22T02:10:40.276Z,3.35
2019-05-22T02:15:49.446Z,3.08
2019-05-22T02:20:58.522Z,3.80
2019-05-22T02:26:07.767Z,3.74
2019-05-22T02:31:16.917Z,3.59
2019-05-22T02:36:26.021Z,3.32
2019-05-22T02:41:35.138Z,2.91
2019-05-22T02:46:44.402Z,4.24
2019-05-22T02:51:53.488Z,3.65
2019-05-22T02:57:02.687Z,3.14
2019-05-22T03:02:11.802Z,2.75
2019-05-22T03:07:21.009Z,3.39
2019-05-22T03:12:30.094Z,3.05
2019-05-22T03:17:39.336Z,2.64
2019-05-22T03:22:48.354Z,3.00
2019-05-22T03:27:57.644Z,3.54
2019-05-22T03:33:06.771Z,2.70
2019-05-22T03:38:15.938Z,3.73
2019-05-22T03:43:25.010Z,2.58
2019-05-22T03:48:34.337Z,2.53
2019-05-22T03:53:43.417Z,3.75
2019-05-22T03:58:52.707Z,4.35
2019-05-22T04:04:01.865Z,4.67
2019-05-22T04:09:11.042Z,5.02
2019-05-22T04:14:20.127Z,4.22
2019-05-22T04:19:47.335Z,4.14
2019-05-22T04:24:38.249Z,3.41
2019-05-22T04:29:47.438Z,4.67
2019-05-22T04:34:56.523Z,4.42
2019-05-22T04:40:05.857Z,3.10
2019-05-22T04:45:14.945Z,3.28
2019-05-22T04:50:24.105Z,4.77
2019-05-22T04:55:33.222Z,2.89
2019-05-22T05:00:42.481Z,4.27
2019-05-22T05:05:51.576Z,4.16
2019-05-22T05:11:00.867Z,3.55
2019-05-22T05:16:10.006Z,3.70
2019-05-22T05:21:19.233Z,3.68
2019-05-22T05:26:28.328Z,4.08
2019-05-22T05:31:37.525Z,3.94
2019-05-22T05:36:46.634Z,3.69
2019-05-22T05:41:55.859Z,4.58
2019-05-22T05:47:04.971Z,4.20
2019-05-22T05:52:14.151Z,4.61
2019-05-22T05:57:23.259Z,4.67
2019-05-22T06:02:32.467Z,3.79
2019-05-22T06:07:41.742Z,5.47
2019-05-22T06:12:50.978Z,5.51
2019-05-22T06:18:00.137Z,4.97
2019-05-22T06:23:09.454Z,5.26
2019-05-22T06:28:18.522Z,3.49
2019-05-22T06:33:27.806Z,4.65
2019-05-22T06:38:36.892Z,4.60
2019-05-22T06:43:46.115Z,4.82
2019-05-22T06:48:55.298Z,5.17
2019-05-22T06:54:04.628Z,4.97
2019-05-22T06:59:16.675Z,5.73
2019-05-22T07:04:15.937Z,4.76
2019-05-22T07:09:25.053Z,4.53
2019-05-22T07:14:34.342Z,4.47
2019-05-22T07:19:43.440Z,3.61
2019-05-22T07:24:52.785Z,5.38
2019-05-22T07:30:02.508Z,3.11
2019-05-22T07:35:10.753Z,5.48
2019-05-22T07:40:19.873Z,4.70
2019-05-22T07:45:29.039Z,5.21
2019-05-22T07:50:38.146Z,5.54
2019-05-22T07:55:47.319Z,5.71
2019-05-22T08:00:56.393Z,6.20
2019-05-22T08:06:09.300Z,4.08
2019-05-22T08:11:08.586Z,5.32
2019-05-22T08:16:17.711Z,6.71
2019-05-22T08:21:26.977Z,4.04
2019-05-22T08:26:53.361Z,5.32
2019-05-22T08:31:46.614Z,6.98
2019-05-22T08:36:45.656Z,4.29
2019-05-22T08:41:55.053Z,4.18
2019-05-22T08:47:04.596Z,6.81
2019-05-22T08:52:22.912Z,4.67
2019-05-22T08:57:22.632Z,5.53
2019-05-22T09:02:31.787Z,4.31
2019-05-22T09:07:40.925Z,6.61
2019-05-22T09:12:50.127Z,5.78
2019-05-22T09:17:59.315Z,5.94
2019-05-22T09:23:08.587Z,4.17
2019-05-22T09:28:17.736Z,7.07
2019-05-22T09:33:26.845Z,6.06
2019-05-22T09:38:36.048Z,6.47
2019-05-22T09:43:45.251Z,5.90
2019-05-22T09:48:54.379Z,5.56
2019-05-22T09:54:04.039Z,7.55
2019-05-22T09:59:12.248Z,7.01
2019-05-22T10:04:21.769Z,7.43
2019-05-22T10:09:30.893Z,5.43
2019-05-22T10:14:40.283Z,8.55
2019-05-22T10:19:49.191Z,6.77
2019-05-22T10:25:14.956Z,5.89
2019-05-22T10:30:07.115Z,7.13
2019-05-22T10:35:16.423Z,7.48
2019-05-22T10:40:25.507Z,8.93
2019-05-22T10:45:34.702Z,8.17
2019-05-22T10:50:43.842Z,5.73
2019-05-22T10:55:53.028Z,7.16
2019-05-22T11:01:02.171Z,7.95
2019-05-22T11:06:11.522Z,7.11
2019-05-22T11:11:20.656Z,7.88
2019-05-22T11:16:29.902Z,9.55
2019-05-22T11:21:39.028Z,8.99
2019-05-22T11:26:48.221Z,10.25
2019-05-22T11:31:57.346Z,12.89
2019-05-22T11:37:06.531Z,14.02
2019-05-22T11:42:15.717Z,14.17
2019-05-22T11:47:25.544Z,15.15
2019-05-22T11:52:34.717Z,14.60
2019-05-22T11:57:44.432Z,14.60
2019-05-22T12:02:53.551Z,15.98
2019-05-22T12:08:02.857Z,16.18
2019-05-22T12:13:12.305Z,14.92
2019-05-22T12:18:21.390Z,16.70
2019-05-22T12:23:30.636Z,13.39
2019-05-22T12:28:44.083Z,17.01
2019-05-22T12:33:43.183Z,15.74
2019-05-22T12:38:52.409Z,18.96
2019-05-22T12:44:01.489Z,18.00
2019-05-22T12:49:10.637Z,17.04
2019-05-22T12:54:19.764Z,14.95
2019-05-22T12:59:28.996Z,14.20
2019-05-22T13:04:38.202Z,15.89
2019-05-22T13:09:47.433Z,15.36
2019-05-22T13:15:08.827Z,16.88
2019-05-22T13:20:05.303Z,19.61
2019-05-22T13:25:14.596Z,21.09
2019-05-22T13:30:23.771Z,18.34
2019-05-22T13:35:32.857Z,16.25
2019-05-22T13:40:42.159Z,21.00
2019-05-22T13:45:51.317Z,18.88
2019-05-22T13:51:00.766Z,14.96
2019-05-22T13:56:09.880Z,13.91
2019-05-22T14:01:19.049Z,9.40
2019-05-22T14:06:28.834Z,12.69
2019-05-22T14:11:37.996Z,9.43
2019-05-22T14:16:49.023Z,7.48
2019-05-22T14:21:55.772Z,8.64
2019-05-22T14:27:04.969Z,9.67
2019-05-22T14:32:14.327Z,8.38
2019-05-22T14:37:23.485Z,10.79
2019-05-22T14:42:32.706Z,7.13
2019-05-22T14:47:41.946Z,10.68
2019-05-22T14:53:23.341Z,14.56
2019-05-22T14:58:32.460Z,10.06
2019-05-22T15:03:41.890Z,11.95
2019-05-22T15:08:51.027Z,11.15
2019-05-22T15:14:00.190Z,9.70
2019-05-22T15:19:09.326Z,10.14
2019-05-22T15:24:18.674Z,10.90
2019-05-22T15:29:27.836Z,8.59
2019-05-22T15:34:37.208Z,11.51
2019-05-22T15:39:46.404Z,8.38
2019-05-22T15:44:55.546Z,9.10
2019-05-22T15:50:04.624Z,8.22
2019-05-22T15:55:13.862Z,6.87
2019-05-22T16:00:22.968Z,7.66
2019-05-22T16:05:32.195Z,6.98
2019-05-22T16:10:41.313Z,10.10
2019-05-22T16:15:50.699Z,13.40
2019-05-22T16:20:59.873Z,17.19
2019-05-22T16:26:09.364Z,15.30
2019-05-22T16:31:17.731Z,7.54
2019-05-22T16:36:26.994Z,7.76
2019-05-22T16:41:38.853Z,6.28
2019-05-22T16:46:38.073Z,6.27
2019-05-22T16:51:47.142Z,6.73
2019-05-22T16:56:56.308Z,6.69
2019-05-22T17:02:05.431Z,5.70
2019-05-22T17:07:14.616Z,6.01
2019-05-22T17:12:23.746Z,6.78
2019-05-22T17:17:32.964Z,6.92
2019-05-22T17:22:42.109Z,6.14
2019-05-22T17:27:51.248Z,5.88
2019-05-22T17:33:00.392Z,6.87
2019-05-22T17:38:09.558Z,6.24
2019-05-22T17:43:18.695Z,6.33
2019-05-22T17:48:27.924Z,5.94
2019-05-22T17:53:37.039Z,5.53
2019-05-22T17:58:46.262Z,5.92
2019-05-22T18:03:55.403Z,5.50
2019-05-22T18:09:04.557Z,5.18
2019-05-22T18:14:13.683Z,4.74
2019-05-22T18:19:22.889Z,5.88
2019-05-22T18:24:31.973Z,5.04
2019-05-22T18:29:41.181Z,4.72
2019-05-22T18:34:50.292Z,4.93
2019-05-22T18:39:59.541Z,4.35
2019-05-22T18:45:08.662Z,5.51
2019-05-22T18:50:17.923Z,5.06
2019-05-22T18:55:26.975Z,5.99
2019-05-22T19:00:36.195Z,5.65
2019-05-22T19:05:45.297Z,5.13
2019-05-22T19:10:54.463Z,6.06
2019-05-22T19:16:03.593Z,7.34
2019-05-22T19:21:12.720Z,6.96
2019-05-22T19:26:21.870Z,6.64
2019-05-22T19:31:31.014Z,7.72
2019-05-22T19:36:40.175Z,7.52
2019-05-22T19:42:01.286Z,7.43
2019-05-22T19:46:59.931Z,8.36
2019-05-22T19:51:57.954Z,7.54
2019-05-22T19:57:07.113Z,7.84
2019-05-22T20:02:16.518Z,10.97
2019-05-22T20:07:25.649Z,9.28
2019-05-22T20:12:34.820Z,7.85
2019-05-22T20:17:43.886Z,7.46
2019-05-22T20:22:53.125Z,8.67
2019-05-22T20:28:02.714Z,8.44
2019-05-22T20:33:11.948Z,7.15
2019-05-22T20:38:21.238Z,6.93
2019-05-22T20:43:30.613Z,6.84
2019-05-22T20:48:40.439Z,6.71
2019-05-22T20:53:54.044Z,6.79
2019-05-22T20:58:59.326Z,6.87
2019-05-22T21:04:09.202Z,6.82
2019-05-22T21:09:18.692Z,6.06
2019-05-22T21:14:27.902Z,6.38
2019-05-22T21:19:37.003Z,6.33
2019-05-22T21:24:46.151Z,5.58
2019-05-22T21:29:55.253Z,5.02
2019-05-22T21:35:04.613Z,5.04
2019-05-22T21:40:13.721Z,5.24
2019-05-22T21:45:22.889Z,5.22
2019-05-22T21:50:31.943Z,5.77
2019-05-22T21:55:45.004Z,5.86
2019-05-22T22:00:49.714Z,6.07
2019-05-22T22:05:59.032Z,6.82
2019-05-22T22:11:08.118Z,6.21
2019-05-22T22:16:17.347Z,6.67
2019-05-22T22:21:27.643Z,6.79
2019-05-22T22:26:26.833Z,6.36
2019-05-22T22:31:35.893Z,6.48
2019-05-22T22:36:45.044Z,7.08
2019-05-22T22:41:54.183Z,6.42
2019-05-22T22:47:03.407Z,6.98
2019-05-22T22:52:12.512Z,6.00
2019-05-22T22:57:21.699Z,6.09
2019-05-22T23:02:30.810Z,6.07
2019-05-22T23:07:41.551Z,6.28
2019-05-22T23:12:42.070Z,6.39
2019-05-22T23:17:41.270Z,6.24
2019-05-22T23:22:50.384Z,6.20
2019-05-22T23:27:59.674Z,6.16
2019-05-22T23:33:08.773Z,6.13
2019-05-22T23:38:17.986Z,6.53
2019-05-22T23:43:27.109Z,6.41
2019-05-22T23:48:36.411Z,6.66
2019-05-22T23:53:45.514Z,6.59
2019-05-22T23:58:54.660Z,6.95
